Time;durP1;ratioP1;P1;durP2;ratioP2;P2;SDS_P1;SDS_P2;PMS_P1;PMS_P2;Temp;Humidity;BMP_temperature;BMP_pressure;BME280_temperature;BME280_humidity;BME280_pressure;Samples;Min_cycle;Max_cycle;Signal;HPM_P1;HPM_P2
2023/04/03 00:00:30;;;;;;;2.40;0.77;;;3.70;99.90;;;;;;4791340;29;20051;-75
2023/04/03 00:02:56;;;;;;;2.47;1.00;;;3.80;99.90;;;;;;4775009;30;20404;-75
2023/04/03 00:05:21;;;;;;;2.23;0.70;;;3.70;99.90;;;;;;4791096;30;20047;-75
2023/04/03 00:07:49;;;;;;;2.77;1.00;;;3.70;99.90;;;;;;4790776;30;20039;-76
2023/04/03 00:10:15;;;;;;;2.45;0.80;;;3.80;99.90;;;;;;4790718;29;20059;-75
2023/04/03 00:12:41;;;;;;;3.33;0.90;;;3.70;99.90;;;;;;4790627;30;20051;-76
2023/04/03 00:15:07;;;;;;;2.07;0.83;;;3.70;99.90;;;;;;4775074;30;20055;-76
2023/04/03 00:17:33;;;;;;;2.85;0.98;;;3.70;99.90;;;;;;4790538;30;20047;-75
2023/04/03 00:19:59;;;;;;;5.10;1.57;;;3.70;99.90;;;;;;4774579;30;20056;-75
2023/04/03 00:22:26;;;;;;;4.80;0.93;;;3.70;99.90;;;;;;4774471;30;20515;-76
2023/04/03 00:24:52;;;;;;;4.28;1.00;;;3.70;99.90;;;;;;4790432;30;20293;-76
2023/04/03 00:27:18;;;;;;;3.93;0.90;;;3.70;99.90;;;;;;4790430;30;20500;-76
2023/04/03 00:29:43;;;;;;;3.17;1.07;;;3.60;99.90;;;;;;4775275;30;20058;-76
2023/04/03 00:32:09;;;;;;;4.17;0.93;;;3.60;99.90;;;;;;4790362;30;20062;-75
2023/04/03 00:34:35;;;;;;;5.13;1.70;;;3.60;99.90;;;;;;4790326;30;20055;-75
2023/04/03 00:37:01;;;;;;;2.47;1.00;;;3.50;99.90;;;;;;4774721;30;20439;-75
2023/04/03 00:39:27;;;;;;;3.23;0.90;;;3.50;99.90;;;;;;4790225;30;20053;-75
2023/04/03 00:41:52;;;;;;;3.93;1.00;;;3.40;99.90;;;;;;4790929;30;20133;-75
2023/04/03 00:44:38;;;;;;;3.60;0.70;;;3.40;99.90;;;;;;4789444;29;20479;-75
2023/04/03 00:47:06;;;;;;;2.70;0.85;;;3.40;99.90;;;;;;4753544;30;20134;-75
2023/04/03 00:49:32;;;;;;;2.33;0.80;;;3.40;99.90;;;;;;4790040;29;20569;-75
2023/04/03 00:51:59;;;;;;;2.93;1.00;;;3.40;99.90;;;;;;4789980;30;20055;-75
2023/04/03 00:54:26;;;;;;;3.72;1.17;;;3.40;99.90;;;;;;4789967;30;20132;-75
2023/04/03 00:56:54;;;;;;;4.00;1.42;;;3.30;99.90;;;;;;4789788;30;20054;-75
2023/04/03 00:59:30;;;;;;;2.55;1.00;;;3.30;99.90;;;;;;4790332;30;20082;-76
2023/04/03 01:01:56;;;;;;;3.17;1.13;;;3.30;99.90;;;;;;4790925;30;20078;-76
2023/04/03 01:04:39;;;;;;;2.85;0.90;;;3.30;99.90;;;;;;4789776;30;20062;-75
2023/04/03 01:07:18;;;;;;;3.13;0.90;;;3.20;99.90;;;;;;4789711;29;20424;-76
2023/04/03 01:09:45;;;;;;;4.60;1.38;;;3.20;99.90;;;;;;4789691;30;20488;-76
2023/04/03 01:12:24;;;;;;;2.67;0.90;;;3.20;99.90;;;;;;4789653;30;20090;-76
2023/04/03 01:15:03;;;;;;;2.58;0.95;;;3.20;99.90;;;;;;4789815;29;20069;-77
2023/04/03 01:17:32;;;;;;;2.97;1.13;;;3.10;99.90;;;;;;4789807;30;20511;-76
2023/04/03 01:20:28;;;;;;;2.47;1.00;;;3.10;99.90;;;;;;4790187;30;20074;-76
2023/04/03 01:23:12;;;;;;;4.22;0.80;;;3.10;99.90;;;;;;4789458;29;20062;-76
2023/04/03 01:25:52;;;;;;;2.47;0.98;;;3.00;99.90;;;;;;4789422;30;20063;-76
2023/04/03 01:28:25;;;;;;;3.53;0.95;;;3.00;99.90;;;;;;4790198;30;20089;-76
2023/04/03 01:31:02;;;;;;;5.47;1.20;;;3.00;99.90;;;;;;4790069;30;20078;-76
2023/04/03 01:33:29;;;;;;;6.97;1.40;;;2.90;99.90;;;;;;4789803;30;20051;-76
2023/04/03 01:35:55;;;;;;;5.75;1.25;;;2.90;99.90;;;;;;4789174;30;20051;-76
2023/04/03 01:38:21;;;;;;;5.00;1.30;;;2.90;99.90;;;;;;4773037;30;20047;-76
2023/04/03 01:40:47;;;;;;;4.50;1.10;;;2.90;99.90;;;;;;4789926;30;20064;-75
2023/04/03 01:43:12;;;;;;;3.37;1.00;;;2.80;99.90;;;;;;4789064;30;20481;-76
2023/04/03 01:45:38;;;;;;;3.23;1.07;;;2.80;99.90;;;;;;4788819;30;20134;-76
2023/04/03 01:48:05;;;;;;;4.13;1.23;;;2.80;99.90;;;;;;4788939;29;20055;-76
2023/04/03 01:50:30;;;;;;;2.28;1.00;;;2.80;99.90;;;;;;4773123;30;20051;-75
2023/04/03 01:52:56;;;;;;;4.90;1.10;;;2.80;99.90;;;;;;4773044;30;20066;-76
2023/04/03 01:55:22;;;;;;;2.87;1.23;;;2.70;99.90;;;;;;4772979;30;20100;-75
2023/04/03 01:57:47;;;;;;;5.27;1.70;;;2.70;99.90;;;;;;4789464;30;20094;-75
2023/04/03 02:00:14;;;;;;;3.97;1.10;;;2.70;99.90;;;;;;4788790;30;20051;-75
2023/04/03 02:02:40;;;;;;;4.18;1.13;;;2.70;99.90;;;;;;4789296;29;20180;-74
2023/04/03 02:05:06;;;;;;;3.93;1.10;;;2.70;99.90;;;;;;4788670;30;20138;-75
2023/04/03 02:07:32;;;;;;;5.05;1.10;;;2.60;99.90;;;;;;4788707;30;20123;-76
2023/04/03 02:09:57;;;;;;;3.80;1.00;;;2.60;99.90;;;;;;4773200;30;20492;-76
2023/04/03 02:12:23;;;;;;;4.67;1.30;;;2.60;99.90;;;;;;4788641;30;20164;-76
2023/04/03 02:14:49;;;;;;;7.03;1.87;;;2.60;99.90;;;;;;4789091;30;20165;-76
2023/04/03 02:17:15;;;;;;;4.20;1.30;;;2.50;99.90;;;;;;4772384;30;20138;-75
2023/04/03 02:19:41;;;;;;;4.70;1.20;;;2.60;99.90;;;;;;4788519;30;20295;-75
2023/04/03 02:22:06;;;;;;;6.30;1.30;;;2.50;99.90;;;;;;4773067;30;20132;-75
2023/04/03 02:24:32;;;;;;;5.17;1.30;;;2.50;99.90;;;;;;4772692;30;20429;-75
2023/04/03 02:26:58;;;;;;;6.60;1.53;;;2.50;99.90;;;;;;4773116;30;20138;-76
2023/04/03 02:29:24;;;;;;;5.33;1.37;;;2.40;99.90;;;;;;4788928;30;20404;-76
2023/04/03 02:31:50;;;;;;;5.77;1.40;;;2.40;99.90;;;;;;4772543;30;20059;-75
2023/04/03 02:34:16;;;;;;;5.60;1.63;;;2.40;99.90;;;;;;4788373;30;20514;-76
2023/04/03 02:36:42;;;;;;;5.60;1.65;;;2.30;99.90;;;;;;4788258;30;20043;-75
2023/04/03 02:39:08;;;;;;;6.50;1.83;;;2.40;99.90;;;;;;4788374;30;20104;-75
2023/04/03 02:41:35;;;;;;;3.80;1.23;;;2.40;99.90;;;;;;4788771;29;20055;-75
2023/04/03 02:44:02;;;;;;;5.32;1.70;;;2.30;99.90;;;;;;4788196;29;20127;-76
2023/04/03 02:46:28;;;;;;;4.95;1.80;;;2.30;99.90;;;;;;4788219;29;20201;-75
2023/04/03 02:48:54;;;;;;;6.40;1.30;;;2.30;99.90;;;;;;4772290;30;20095;-75
2023/04/03 02:51:20;;;;;;;5.72;1.42;;;2.20;99.90;;;;;;4788680;30;20091;-76
2023/04/03 02:53:46;;;;;;;7.10;1.90;;;2.30;99.90;;;;;;4772360;30;20091;-75
2023/04/03 02:56:11;;;;;;;4.17;1.17;;;2.30;99.90;;;;;;4788551;30;20055;-76
2023/04/03 02:58:37;;;;;;;4.77;1.17;;;2.20;99.90;;;;;;4757636;30;20404;-76
2023/04/03 03:01:04;;;;;;;2.83;1.13;;;2.20;99.90;;;;;;4772542;30;20051;-75
2023/04/03 03:03:30;;;;;;;2.53;1.00;;;2.20;99.90;;;;;;4787895;30;20055;-76
2023/04/03 03:06:07;;;;;;;4.70;1.40;;;2.10;99.90;;;;;;4788823;30;20047;-76
2023/04/03 03:08:33;;;;;;;5.15;1.48;;;2.10;99.90;;;;;;4791009;29;20112;-76
2023/04/03 03:10:59;;;;;;;5.97;1.70;;;2.10;99.90;;;;;;4791648;30;20055;-76
2023/04/03 03:13:25;;;;;;;5.75;1.70;;;2.10;99.90;;;;;;4792119;30;20051;-76
2023/04/03 03:15:51;;;;;;;5.60;1.60;;;2.10;99.90;;;;;;4791595;29;20086;-75
2023/04/03 03:18:17;;;;;;;6.10;1.93;;;2.10;99.90;;;;;;4791714;30;20067;-76
2023/04/03 03:20:43;;;;;;;7.27;1.80;;;2.00;99.90;;;;;;4791591;30;20345;-75
2023/04/03 03:23:09;;;;;;;4.90;1.80;;;2.00;99.90;;;;;;4791897;29;20374;-76
2023/04/03 03:25:39;;;;;;;8.47;1.90;;;2.00;99.90;;;;;;4791485;30;20131;-75
2023/04/03 03:28:05;;;;;;;7.47;1.70;;;2.00;99.90;;;;;;4791370;30;20059;-75
2023/04/03 03:30:30;;;;;;;5.30;1.60;;;2.00;99.90;;;;;;4791382;30;20051;-75
2023/04/03 03:32:56;;;;;;;4.13;1.40;;;1.80;99.90;;;;;;4791828;29;20483;-75
2023/04/03 03:35:22;;;;;;;5.03;1.50;;;1.90;99.90;;;;;;4791256;30;20047;-75
2023/04/03 03:37:47;;;;;;;5.97;1.93;;;1.90;99.90;;;;;;4791104;30;20395;-75
2023/04/03 03:40:13;;;;;;;6.40;1.60;;;1.90;99.90;;;;;;4791204;30;20137;-76
2023/04/03 03:42:39;;;;;;;9.97;1.83;;;1.90;99.90;;;;;;4791892;30;20047;-75
2023/04/03 03:45:06;;;;;;;6.18;2.10;;;1.90;99.90;;;;;;4791579;30;20112;-76
2023/04/03 03:47:32;;;;;;;6.75;2.53;;;1.80;99.90;;;;;;4774888;30;20070;-75
2023/04/03 03:49:57;;;;;;;6.37;2.43;;;1.80;99.90;;;;;;4791526;30;20052;-75
2023/04/03 03:52:23;;;;;;;7.07;1.70;;;1.80;99.90;;;;;;4790970;30;20056;-75
2023/04/03 03:54:49;;;;;;;5.70;2.03;;;1.80;99.90;;;;;;4791016;30;20137;-76
2023/04/03 03:57:15;;;;;;;6.40;1.60;;;1.80;99.90;;;;;;4790857;29;20051;-76
2023/04/03 03:59:41;;;;;;;7.55;2.00;;;1.80;99.90;;;;;;4774937;30;20066;-75
2023/04/03 04:02:08;;;;;;;9.02;2.08;;;1.80;99.90;;;;;;4791569;30;20080;-76
2023/04/03 04:04:34;;;;;;;6.25;2.20;;;1.70;99.90;;;;;;4790589;30;20397;-76
2023/04/03 04:07:00;;;;;;;5.22;1.90;;;1.70;99.90;;;;;;4774702;30;20519;-75
2023/04/03 04:09:26;;;;;;;6.93;2.08;;;1.70;99.90;;;;;;4790717;30;20055;-76
2023/04/03 04:11:52;;;;;;;6.85;1.90;;;1.70;99.90;;;;;;4790694;29;20473;-75
2023/04/03 04:14:20;;;;;;;7.57;2.00;;;1.70;99.90;;;;;;4790912;30;20047;-76
2023/04/03 04:16:46;;;;;;;5.15;2.00;;;1.60;99.90;;;;;;4790568;30;20175;-75
2023/04/03 04:19:12;;;;;;;7.13;1.88;;;1.60;99.90;;;;;;4789480;29;20062;-76
2023/04/03 04:21:39;;;;;;;6.72;1.98;;;1.60;99.90;;;;;;4790487;29;20058;-75
2023/04/03 04:24:05;;;;;;;6.00;1.70;;;1.60;99.90;;;;;;4790457;30;20059;-76
2023/04/03 04:26:31;;;;;;;7.75;2.35;;;1.60;99.90;;;;;;4790456;30;20050;-75
2023/04/03 04:28:57;;;;;;;7.20;1.80;;;1.60;99.90;;;;;;4790934;30;20047;-75
2023/04/03 04:31:23;;;;;;;6.27;2.00;;;1.50;99.90;;;;;;4790851;30;20051;-75
2023/04/03 04:33:48;;;;;;;8.93;2.03;;;1.50;99.90;;;;;;4774294;30;20055;-76
2023/04/03 04:36:14;;;;;;;6.30;2.03;;;1.50;99.90;;;;;;4774056;30;20054;-76
2023/04/03 04:38:41;;;;;;;7.60;2.17;;;1.40;99.90;;;;;;4790219;30;20108;-76
2023/04/03 04:41:07;;;;;;;6.32;2.13;;;1.40;99.90;;;;;;4790693;30;20288;-76
2023/04/03 04:43:33;;;;;;;6.50;2.17;;;1.50;99.90;;;;;;4790895;30;20047;-76
2023/04/03 04:46:11;;;;;;;6.43;1.95;;;1.30;99.90;;;;;;4789868;29;20086;-75
2023/04/03 04:48:37;;;;;;;5.35;1.63;;;1.30;99.90;;;;;;4790659;30;20059;-75
2023/04/03 04:51:03;;;;;;;6.13;1.85;;;1.30;99.90;;;;;;4790230;30;20058;-76
2023/04/03 04:53:29;;;;;;;8.48;2.10;;;1.30;99.90;;;;;;4789876;29;20062;-76
2023/04/03 04:55:55;;;;;;;5.60;2.07;;;1.30;99.90;;;;;;4774312;30;20055;-75
2023/04/03 04:58:21;;;;;;;5.87;2.17;;;1.40;99.90;;;;;;4789713;30;20489;-76
2023/04/03 05:00:47;;;;;;;5.47;1.90;;;1.30;99.90;;;;;;4790042;30;20293;-75
2023/04/03 05:03:13;;;;;;;6.72;2.25;;;1.30;99.90;;;;;;4790272;30;20497;-77
2023/04/03 05:05:38;;;;;;;7.60;3.27;;;1.30;99.90;;;;;;4774420;30;20138;-75
2023/04/03 05:08:04;;;;;;;9.33;2.40;;;1.30;99.90;;;;;;4789685;30;20297;-76
2023/04/03 05:10:31;;;;;;;6.47;2.15;;;1.30;99.90;;;;;;4773772;30;20496;-76
2023/04/03 05:12:57;;;;;;;9.60;2.97;;;1.30;99.90;;;;;;4789685;30;20142;-76
2023/04/03 05:15:23;;;;;;;10.02;2.28;;;1.20;99.90;;;;;;4790331;30;20425;-75
2023/04/03 05:17:49;;;;;;;8.00;2.53;;;1.10;99.90;;;;;;4789548;30;20054;-75
2023/04/03 05:20:15;;;;;;;6.23;2.30;;;1.20;99.90;;;;;;4789688;30;20062;-78
2023/04/03 05:22:40;;;;;;;10.63;2.43;;;1.20;99.90;;;;;;4789487;29;20142;-75
2023/04/03 05:25:06;;;;;;;7.47;2.37;;;1.20;99.90;;;;;;4789498;29;20058;-75
2023/04/03 05:27:32;;;;;;;8.48;3.30;;;1.20;99.90;;;;;;4789151;30;20484;-76
2023/04/03 05:29:59;;;;;;;8.77;2.53;;;1.20;99.90;;;;;;4789665;29;20051;-75
2023/04/03 05:32:27;;;;;;;6.82;2.13;;;1.10;99.90;;;;;;4790065;30;20138;-77
2023/04/03 05:34:53;;;;;;;6.53;2.25;;;1.20;99.90;;;;;;4789365;29;20542;-76
2023/04/03 05:37:19;;;;;;;9.02;2.45;;;1.20;99.90;;;;;;4788878;29;20047;-77
2023/04/03 05:39:45;;;;;;;7.65;2.08;;;1.20;99.90;;;;;;4789247;30;20066;-75
2023/04/03 05:42:11;;;;;;;7.57;2.47;;;1.20;99.90;;;;;;4789150;29;20508;-76
2023/04/03 05:44:38;;;;;;;9.93;2.53;;;1.10;99.90;;;;;;4772852;30;20130;-76
2023/04/03 05:47:04;;;;;;;7.32;2.80;;;1.20;99.90;;;;;;4789167;30;20098;-76
2023/04/03 05:49:30;;;;;;;9.75;3.58;;;1.20;99.90;;;;;;4789028;30;20051;-74
2023/04/03 05:51:56;;;;;;;10.18;4.03;;;1.20;99.90;;;;;;4789019;30;20138;-75
2023/04/03 05:54:25;;;;;;;10.20;2.77;;;1.20;99.90;;;;;;4789018;30;20147;-75
2023/04/03 05:56:51;;;;;;;8.15;2.33;;;1.20;99.90;;;;;;4788874;30;20062;-73
2023/04/03 05:59:18;;;;;;;9.50;2.40;;;1.30;99.90;;;;;;4789451;30;20505;-77
2023/04/03 06:01:44;;;;;;;11.70;2.80;;;1.30;99.90;;;;;;4788876;30;20059;-77
2023/04/03 06:04:10;;;;;;;8.53;2.80;;;1.40;99.90;;;;;;4788813;30;20127;-76
2023/04/03 06:06:51;;;;;;;10.70;2.95;;;1.40;99.90;;;;;;4772755;30;20047;-77
2023/04/03 06:09:17;;;;;;;6.55;2.50;;;1.40;99.90;;;;;;4788666;30;20055;-77
2023/04/03 06:11:42;;;;;;;8.37;2.20;;;1.50;99.90;;;;;;4788535;30;20051;-77
2023/04/03 06:14:09;;;;;;;6.07;2.23;;;1.50;99.90;;;;;;4789150;30;20051;-77
2023/04/03 06:16:35;;;;;;;7.60;2.53;;;1.90;99.90;;;;;;4788599;29;20058;-77
2023/04/03 06:19:01;;;;;;;7.67;2.30;;;2.50;99.90;;;;;;4788713;30;20126;-77
2023/04/03 06:21:26;;;;;;;7.43;2.93;;;3.40;99.90;;;;;;4758176;30;20293;-77
2023/04/03 06:23:52;;;;;;;8.83;2.37;;;4.60;99.90;;;;;;4772691;30;20134;-77
2023/04/03 06:26:18;;;;;;;6.80;2.90;;;5.90;99.90;;;;;;4788582;29;20054;-77
2023/04/03 06:28:43;;;;;;;7.97;2.63;;;6.90;99.90;;;;;;4788761;30;20065;-77
2023/04/03 06:31:09;;;;;;;5.60;2.20;;;7.30;99.90;;;;;;4788542;30;20142;-78
2023/04/03 06:33:35;;;;;;;7.27;2.60;;;7.20;99.90;;;;;;4788457;30;20088;-78
2023/04/03 06:36:04;;;;;;;6.00;2.07;;;7.00;99.90;;;;;;4772832;30;20888;-78
2023/04/03 06:38:30;;;;;;;6.93;2.60;;;6.70;99.90;;;;;;4788304;30;20139;-78
2023/04/03 06:40:56;;;;;;;8.10;2.50;;;7.30;99.90;;;;;;4788596;30;20138;-77
2023/04/03 06:43:22;;;;;;;6.37;2.47;;;8.10;99.90;;;;;;4787782;29;20455;-77
2023/04/03 06:45:48;;;;;;;11.40;3.00;;;9.00;99.90;;;;;;4788666;30;20174;-77
2023/04/03 06:48:14;;;;;;;10.97;4.00;;;9.70;99.90;;;;;;4757573;30;20782;-78
2023/04/03 06:50:40;;;;;;;8.20;3.33;;;10.20;98.20;;;;;;4772312;30;20074;-78
2023/04/03 06:53:06;;;;;;;7.33;2.57;;;10.80;99.90;;;;;;4788026;30;20059;-78
2023/04/03 06:55:33;;;;;;;6.53;2.60;;;11.30;98.60;;;;;;4772716;30;20350;-78
2023/04/03 06:57:59;;;;;;;6.80;2.43;;;11.70;94.60;;;;;;4788198;30;20808;-78
2023/04/03 07:00:24;;;;;;;8.33;2.77;;;12.10;94.10;;;;;;4788285;30;20292;-78
2023/04/03 07:02:51;;;;;;;7.23;2.50;;;12.50;91.00;;;;;;4772216;30;20400;-78
2023/04/03 07:05:18;;;;;;;8.23;2.33;;;12.90;79.20;;;;;;4788260;29;20091;-78
2023/04/03 07:07:43;;;;;;;8.87;2.57;;;12.90;81.60;;;;;;4788235;30;20284;-78
2023/04/03 07:10:10;;;;;;;6.77;2.30;;;13.10;78.10;;;;;;4788731;30;20634;-78
2023/04/03 07:12:37;;;;;;;8.77;2.97;;;13.40;77.30;;;;;;4788802;30;20055;-78
2023/04/03 07:15:04;;;;;;;8.60;2.70;;;13.90;67.10;;;;;;4788610;30;20298;-78
2023/04/03 07:17:31;;;;;;;7.67;2.50;;;14.20;68.70;;;;;;4787997;30;20410;-77
2023/04/03 07:19:56;;;;;;;5.63;2.93;;;14.60;66.60;;;;;;4788553;30;20843;-77
2023/04/03 07:22:22;;;;;;;5.93;2.50;;;14.40;53.10;;;;;;4772207;30;20324;-77
2023/04/03 07:24:48;;;;;;;8.50;2.73;;;;;;;;;;4787929;30;20057;-77
2023/04/03 07:27:14;;;;;;;6.87;2.40;;;15.30;51.80;;;;;;4788015;30;20090;-77
2023/04/03 07:29:40;;;;;;;7.30;2.17;;;16.00;47.80;;;;;;4787659;30;20711;-77
2023/04/03 07:32:06;;;;;;;6.20;2.27;;;16.50;47.50;;;;;;4787978;30;20138;-77
2023/04/03 07:34:32;;;;;;;6.70;2.60;;;16.70;46.00;;;;;;4787969;29;20057;-78
2023/04/03 07:36:59;;;;;;;5.50;2.30;;;16.60;47.10;;;;;;4787895;30;20049;-77
2023/04/03 07:39:25;;;;;;;5.80;2.40;;;16.60;52.80;;;;;;4787917;30;20106;-77
2023/04/03 07:41:51;;;;;;;6.33;2.00;;;16.80;51.10;;;;;;4787880;30;20073;-77
2023/04/03 07:44:17;;;;;;;6.67;2.60;;;16.20;43.30;;;;;;4787826;30;20059;-77
2023/04/03 07:46:43;;;;;;;6.87;2.40;;;16.10;45.00;;;;;;4771594;29;20153;-77
2023/04/03 07:49:09;;;;;;;5.73;2.67;;;15.80;50.30;;;;;;4771948;30;20138;-76
2023/04/03 07:51:36;;;;;;;7.93;2.60;;;15.70;50.50;;;;;;4788315;30;20059;-76
2023/04/03 07:54:02;;;;;;;6.50;2.37;;;14.60;50.50;;;;;;4790409;29;20393;-77
2023/04/03 07:56:27;;;;;;;7.33;2.20;;;13.50;51.60;;;;;;4790958;30;20058;-77
2023/04/03 07:58:53;;;;;;;5.23;2.30;;;12.50;52.40;;;;;;4790887;30;20382;-77
2023/04/03 08:01:19;;;;;;;5.30;2.20;;;11.70;54.10;;;;;;4775092;30;20047;-77
2023/04/03 08:03:45;;;;;;;4.70;1.80;;;10.90;54.30;;;;;;4790922;30;20485;-77
2023/04/03 08:06:11;;;;;;;6.50;2.37;;;10.40;55.60;;;;;;4775788;30;20304;-77
2023/04/03 08:08:37;;;;;;;6.93;2.00;;;10.00;56.00;;;;;;4790822;30;20047;-77
2023/04/03 08:11:05;;;;;;;4.10;1.77;;;9.70;57.40;;;;;;4790762;30;20074;-77
2023/04/03 08:13:31;;;;;;;7.03;2.13;;;9.50;58.10;;;;;;4774971;30;20063;-77
2023/04/03 08:15:57;;;;;;;5.20;2.20;;;9.20;58.80;;;;;;4790675;30;20296;-77
2023/04/03 08:18:24;;;;;;;7.50;2.10;;;9.00;59.40;;;;;;4790609;30;20397;-77
2023/04/03 08:20:51;;;;;;;6.90;1.90;;;9.00;61.10;;;;;;4791364;30;20292;-77
2023/04/03 08:23:18;;;;;;;5.67;2.10;;;8.70;59.90;;;;;;4774761;30;20301;-77
2023/04/03 08:25:44;;;;;;;4.57;1.60;;;8.60;60.10;;;;;;4790211;30;20876;-77
2023/04/03 08:28:11;;;;;;;5.37;1.63;;;8.40;60.20;;;;;;4790610;30;20368;-77
2023/04/03 08:30:40;;;;;;;3.93;1.23;;;8.30;60.30;;;;;;4790272;30;20793;-78
2023/04/03 08:33:07;;;;;;;6.17;1.90;;;8.30;61.90;;;;;;4790492;30;20292;-77
2023/04/03 08:35:32;;;;;;;6.13;1.43;;;8.20;61.70;;;;;;4790998;30;20289;-77
2023/04/03 08:37:58;;;;;;;5.97;1.70;;;8.20;61.90;;;;;;4790350;30;20627;-77
2023/04/03 08:40:24;;;;;;;5.60;1.60;;;8.00;61.60;;;;;;4790503;29;20077;-76
2023/04/03 08:42:56;;;;;;;5.53;1.80;;;7.90;62.80;;;;;;4790836;30;20055;-77
2023/04/03 08:45:49;;;;;;;5.63;1.50;;;7.80;63.00;;;;;;4790835;30;20611;-76
2023/04/03 08:48:29;;;;;;;5.00;1.53;;;7.70;63.00;;;;;;4789922;29;20305;-77
2023/04/03 08:51:02;;;;;;;4.90;1.37;;;7.60;63.00;;;;;;4774363;30;20794;-76
2023/04/03 08:53:33;;;;;;;4.80;1.30;;;7.40;62.50;;;;;;4791048;30;20281;-77
2023/04/03 08:56:04;;;;;;;5.27;1.50;;;7.40;64.90;;;;;;4790411;30;20316;-77
2023/04/03 08:58:42;;;;;;;4.17;1.50;;;7.40;64.80;;;;;;4774563;30;20317;-77
2023/04/03 09:01:40;;;;;;;4.17;1.23;;;7.40;64.90;;;;;;4790872;30;20289;-77
2023/04/03 09:04:14;;;;;;;3.73;1.30;;;7.40;62.60;;;;;;4790830;30;20686;-77
2023/04/03 09:06:46;;;;;;;4.40;1.67;;;7.40;63.70;;;;;;4789518;30;20284;-77
2023/04/03 09:09:40;;;;;;;4.50;1.23;;;7.40;64.40;;;;;;4790504;30;20332;-77
2023/04/03 09:12:23;;;;;;;4.07;1.00;;;7.60;63.50;;;;;;4789841;30;20393;-77
2023/04/03 09:15:16;;;;;;;3.63;1.20;;;7.60;63.00;;;;;;4790444;30;20291;-77
2023/04/03 09:17:48;;;;;;;5.73;1.27;;;7.60;63.20;;;;;;4790239;30;20308;-77
2023/04/03 09:20:38;;;;;;;3.50;1.60;;;7.50;60.10;;;;;;4789829;29;20301;-77
2023/04/03 09:23:17;;;;;;;2.50;1.07;;;7.60;59.80;;;;;;4790614;30;20829;-77
2023/04/03 09:25:43;;;;;;;3.77;1.20;;;7.50;62.90;;;;;;4790443;30;20285;-78
2023/04/03 09:28:09;;;;;;;4.17;1.70;;;7.50;62.10;;;;;;4789610;30;20291;-77
2023/04/03 09:30:37;;;;;;;3.17;1.20;;;7.60;62.50;;;;;;4789573;30;20297;-77
2023/04/03 09:33:03;;;;;;;5.90;1.17;;;7.60;62.30;;;;;;4789486;30;20051;-77
2023/04/03 09:35:37;;;;;;;4.10;1.03;;;7.60;61.20;;;;;;4774366;30;20305;-77
2023/04/03 09:38:12;;;;;;;5.30;1.20;;;7.60;60.70;;;;;;4789861;30;20309;-78
2023/04/03 09:40:39;;;;;;;4.67;1.40;;;7.60;61.90;;;;;;4789342;30;20797;-77
2023/04/03 09:43:25;;;;;;;3.50;1.07;;;7.70;62.00;;;;;;4790047;30;20336;-77
2023/04/03 09:45:52;;;;;;;5.13;1.30;;;7.70;62.00;;;;;;4789254;30;20297;-78
2023/04/03 09:48:21;;;;;;;5.27;1.73;;;7.60;61.70;;;;;;4789511;29;20620;-78
2023/04/03 09:50:58;;;;;;;4.53;1.23;;;7.70;62.50;;;;;;4789709;30;20285;-78
2023/04/03 09:53:43;;;;;;;2.63;1.00;;;7.80;62.10;;;;;;4789325;30;20327;-77
2023/04/03 09:56:15;;;;;;;4.38;1.00;;;7.80;58.50;;;;;;4789956;30;20296;-77
2023/04/03 09:58:48;;;;;;;3.37;1.17;;;7.80;58.80;;;;;;4789103;30;20056;-77
2023/04/03 10:01:33;;;;;;;3.07;1.13;;;7.90;59.60;;;;;;4789084;30;20829;-78
2023/04/03 10:04:10;;;;;;;4.07;1.33;;;7.80;58.60;;;;;;4789876;30;20370;-78
2023/04/03 10:06:49;;;;;;;3.40;1.03;;;7.90;58.20;;;;;;4789489;29;20634;-77
2023/04/03 10:09:32;;;;;;;3.13;1.43;;;7.90;57.00;;;;;;4789765;30;20355;-77
2023/04/03 10:12:07;;;;;;;3.60;1.23;;;8.00;56.30;;;;;;4789565;30;20646;-78
2023/04/03 10:14:52;;;;;;;5.33;1.40;;;8.10;57.10;;;;;;4788901;30;20659;-77
2023/04/03 10:17:22;;;;;;;3.77;1.23;;;8.10;58.30;;;;;;4775274;30;20312;-77
2023/04/03 10:19:59;;;;;;;3.77;1.60;;;8.20;58.80;;;;;;4773235;30;20301;-77
2023/04/03 10:22:43;;;;;;;2.80;1.00;;;8.30;58.30;;;;;;4792737;30;20792;-76
2023/04/03 10:25:35;;;;;;;3.40;1.05;;;8.30;58.80;;;;;;4789354;30;20301;-78
2023/04/03 10:28:07;;;;;;;6.03;1.60;;;8.30;57.80;;;;;;4788737;30;20086;-77
2023/04/03 10:30:42;;;;;;;3.63;1.40;;;8.30;55.10;;;;;;4789258;30;20291;-78
2023/04/03 10:33:31;;;;;;;3.03;1.13;;;8.20;55.10;;;;;;4788449;30;20774;-77
2023/04/03 10:36:09;;;;;;;2.70;0.90;;;8.20;55.10;;;;;;4773066;30;20063;-77
2023/04/03 10:38:49;;;;;;;1.93;0.80;;;8.10;55.70;;;;;;4788844;30;20312;-77
2023/04/03 10:41:32;;;;;;;3.80;1.50;;;8.20;55.60;;;;;;4788658;30;20288;-77
2023/04/03 10:44:17;;;;;;;3.20;0.97;;;8.30;54.80;;;;;;4789327;30;20289;-78
2023/04/03 10:46:52;;;;;;;2.42;0.70;;;8.30;53.90;;;;;;4788450;29;20308;-77
2023/04/03 10:49:46;;;;;;;2.88;0.85;;;8.30;53.30;;;;;;4788540;30;20059;-77
2023/04/03 10:52:22;;;;;;;3.23;0.83;;;8.30;51.40;;;;;;4787037;30;20063;-77
2023/04/03 10:55:15;;;;;;;1.87;0.83;;;8.20;52.10;;;;;;4789020;30;20299;-77
2023/04/03 10:57:41;;;;;;;3.07;1.00;;;8.10;50.60;;;;;;4788573;30;20308;-77
2023/04/03 11:00:18;;;;;;;2.27;0.87;;;8.20;51.00;;;;;;4788372;30;20761;-77
2023/04/03 11:03:03;;;;;;;1.93;0.70;;;8.20;50.30;;;;;;4788460;30;20055;-77
2023/04/03 11:05:39;;;;;;;4.05;1.10;;;8.20;49.40;;;;;;4788913;30;20362;-78
2023/04/03 11:08:15;;;;;;;3.00;0.80;;;8.20;51.50;;;;;;4772772;30;20058;-78
2023/04/03 11:10:51;;;;;;;1.63;0.80;;;8.30;50.00;;;;;;4789115;30;20289;-77
2023/04/03 11:13:23;;;;;;;1.97;0.60;;;8.30;49.00;;;;;;4788068;30;20353;-78
2023/04/03 11:15:51;;;;;;;3.77;1.03;;;8.40;50.90;;;;;;4788208;30;20293;-78
2023/04/03 11:18:40;;;;;;;3.83;1.17;;;8.30;50.70;;;;;;4787833;30;20814;-78
2023/04/03 11:21:38;;;;;;;3.37;1.53;;;8.30;51.10;;;;;;4788466;30;20350;-77
2023/04/03 11:24:11;;;;;;;5.13;1.10;;;8.40;49.90;;;;;;4772566;30;20388;-78
2023/04/03 11:26:42;;;;;;;2.67;1.13;;;8.50;51.90;;;;;;4772134;30;20301;-78
2023/04/03 11:29:18;;;;;;;4.73;1.50;;;8.40;52.50;;;;;;4774193;30;20297;-78
2023/04/03 11:32:04;;;;;;;3.93;1.23;;;8.30;52.20;;;;;;4791747;30;20273;-77
2023/04/03 11:34:49;;;;;;;4.00;1.20;;;8.30;52.00;;;;;;4792154;30;20282;-78
2023/04/03 11:37:38;;;;;;;3.13;1.00;;;8.30;51.60;;;;;;4791301;30;20313;-77
2023/04/03 11:40:12;;;;;;;3.97;0.90;;;8.30;50.30;;;;;;4792160;30;20055;-78
2023/04/03 11:42:40;;;;;;;2.00;0.90;;;8.40;52.00;;;;;;4775750;30;20383;-78
2023/04/03 11:45:21;;;;;;;4.10;1.00;;;8.40;50.80;;;;;;4775267;30;20305;-78
2023/04/03 11:47:58;;;;;;;3.17;0.83;;;8.40;49.60;;;;;;4774818;30;20737;-78
2023/04/03 11:50:36;;;;;;;1.97;0.80;;;8.40;50.80;;;;;;4791960;30;20400;-78
2023/04/03 11:53:05;;;;;;;2.83;1.10;;;8.50;51.70;;;;;;4775274;30;20719;-78
2023/04/03 11:55:31;;;;;;;2.47;1.00;;;8.50;52.10;;;;;;4791243;30;20388;-78
2023/04/03 11:58:00;;;;;;;3.13;1.13;;;8.60;52.50;;;;;;4790937;29;20723;-78
2023/04/03 12:00:46;;;;;;;3.03;1.00;;;8.60;53.30;;;;;;4791225;30;20098;-78
2023/04/03 12:03:26;;;;;;;2.63;1.07;;;8.60;52.00;;;;;;4790864;30;20312;-77
2023/04/03 12:06:13;;;;;;;4.50;1.10;;;8.60;51.40;;;;;;4790893;30;20761;-78
2023/04/03 12:08:41;;;;;;;3.20;1.17;;;8.60;52.50;;;;;;4762991;30;20297;-78
2023/04/03 12:11:10;;;;;;;2.47;0.83;;;8.60;52.70;;;;;;4791520;30;20679;-78
2023/04/03 12:13:57;;;;;;;3.90;0.80;;;8.70;52.00;;;;;;4790812;30;20297;-78
2023/04/03 12:16:37;;;;;;;2.57;0.93;;;8.70;51.30;;;;;;4790332;29;20839;-78
2023/04/03 12:19:24;;;;;;;2.93;1.10;;;8.60;52.10;;;;;;4790761;30;20342;-78
2023/04/03 12:21:59;;;;;;;2.00;0.90;;;8.70;53.20;;;;;;4790498;29;20301;-78
2023/04/03 12:24:30;;;;;;;3.25;1.00;;;8.70;52.30;;;;;;4775537;30;20384;-78
2023/04/03 12:27:38;;;;;;;3.57;1.27;;;8.70;51.60;;;;;;4774722;30;20142;-78
2023/04/03 12:30:03;;;;;;;3.03;0.87;;;8.70;52.30;;;;;;4760412;30;20604;-77
2023/04/03 12:33:11;;;;;;;3.03;1.13;;;8.80;53.10;;;;;;4790360;30;20369;-77
2023/04/03 12:36:04;;;;;;;4.63;0.97;;;8.80;52.50;;;;;;4756261;29;20090;-78
2023/04/03 12:39:17;;;;;;;4.20;1.20;;;8.80;50.50;;;;;;4790298;30;20825;-78
2023/04/03 12:42:23;;;;;;;3.87;1.33;;;8.70;51.70;;;;;;4717151;30;20379;-78
2023/04/03 12:45:00;;;;;;;3.78;1.27;;;8.70;52.10;;;;;;4790272;30;20293;-77
2023/04/03 12:47:36;;;;;;;4.30;1.63;;;8.70;50.60;;;;;;4789994;30;20082;-78
2023/04/03 12:50:03;;;;;;;;;;;8.70;52.80;;;;;;4790968;30;20312;-78
2023/04/03 12:52:36;;;;;;;4.60;1.17;;;8.70;48.50;;;;;;4790168;30;19932;-78
2023/04/03 12:55:07;;;;;;;5.40;1.23;;;8.70;51.60;;;;;;4790106;30;20303;-78
2023/04/03 12:57:32;;;;;;;2.57;0.97;;;8.70;51.00;;;;;;4774616;30;20313;-78
2023/04/03 12:59:59;;;;;;;3.07;1.20;;;8.70;51.90;;;;;;4789945;30;20289;-77
2023/04/03 13:02:31;;;;;;;4.50;0.93;;;8.70;51.70;;;;;;4789945;30;20052;-78
2023/04/03 13:05:04;;;;;;;3.13;1.10;;;8.60;50.60;;;;;;4789947;30;20308;-77
2023/04/03 13:07:34;;;;;;;2.97;1.00;;;8.60;51.70;;;;;;4774697;30;20342;-77
2023/04/03 13:10:20;;;;;;;3.10;1.07;;;8.70;50.60;;;;;;4774438;30;20350;-78
2023/04/03 13:12:47;;;;;;;2.03;1.00;;;8.60;50.30;;;;;;4773328;30;20346;-78